AirNav   Get $300 off a Bose A20 Aviation Headset
 
 971 users online  

00LS Lejeune Airport
Esterwood, Louisiana, USA

GOING TO ESTERWOOD?


FAA INFORMATION EFFECTIVE 12 SEPTEMBER 2019

Location

FAA Identifier: 00LS
Lat/Long: 30-08-10.6000N 092-25-45.7000W
30-08.176667N 092-25.761667W
30.1362778,-92.4293611
(estimated)
Elevation: 12 ft. / 4 m (estimated)
From city: 3 miles SE of ESTERWOOD, LA
Time zone: UTC -5 (UTC -6 during Standard Time)
Zip code: 70526

Airport Operations

Airport use: Private use. Permission required prior to landing
Activation date: 02/2005
Control tower: no
ARTCC: HOUSTON CENTER
FSS: DE RIDDER FLIGHT SERVICE STATION
Attendance: UNATNDD
Segmented circle: no

Airport Communications

WX AWOS-3PT at 3R7 (14 nm NW): 121.150 (337-824-0517)

Nearby radio navigation aids

VOR radial/distance  VOR name  Freq  Var
LFTr258/22.9LAFAYETTE VORTAC109.8003E
LLAr350/28.5WHITE LAKE VOR/DME110.4004E
LCHr084/35.1LAKE CHARLES VORTAC113.4007E

 
NDB name  Hdg/Dist  Freq  Var  ID
ABBEVILLE284/16.523002EBNZ -... -. --..
DURALDE176/25.426302EECY . -.-. -.--

Airport Services

Runway Information

Runway 18/36

Dimensions: 2600 x 100 ft. / 792 x 30 m
Surface: turf
RUNWAY 18  RUNWAY 36
Traffic pattern: leftright
Obstructions: 25 ft. pline, 10 ft. from runwaynone

Airport Ownership and Management from official FAA records

Ownership: Privately-owned
Owner: GENE R. LEJEUNE
575 N. AVE K
CROWLEY, LA 70526-4562
Phone (337) 458-1947
Manager: GENE R. LEJEUNE
575 N. AVE K
CROWLEY, LA 70526-4562
Phone (337) 458-1947

Additional Remarks

FOR CD CTC HOUSTON ARTCC AT 281-230-5622.

Instrument Procedures

There are no published instrument procedures at 00LS.

Some nearby airports with instrument procedures:

3R7 - Jennings Airport (14 nm NW)
4R7 - Eunice Airport (20 nm N)
KIYA - Abbeville Chris Crusta Memorial Airport (20 nm SE)
6R1 - Welsh Airport (22 nm W)
KLFT - Lafayette Regional Airport/Paul Fournet Field (23 nm E)
 
Loc | Ops | Rwys | IFR | FBO | Links
Com | Nav | Svcs | Stats | Notes
Area around 00LS (Lejeune Airport)
 
Road maps at: MapQuest Bing Google
 
Aerial photo
No photo
 
Sectional chart

 
Airport distance calculator
Flying to Lejeune Airport? Find the distance to fly.

From to 00LS

Sunrise and sunset
Times for 21-Sep-2019
 Local
(UTC-5)
 Zulu
(UTC)
Morning civil twilight06:3511:35
Sunrise06:5811:58
Sunset19:0700:07
Evening civil twilight19:3100:31

Current date and time
Zulu (UTC)  21-Sep-2019 18:50:29
Local (UTC-5)  21-Sep-2019 13:50:29
 
METAR
K3R7 
14nm NW 
211835Z AUTO 13007KT 10SM SCT038 SCT046 32/22 A3010 RMK AO2 T03150223
KIYA 
20nm SE 
211835Z AUTO 11004KT SCT039 SCT047 SCT065 30/22 A3010 RMK AO2 T02990223 PWINO
K0R3 
20nm SE 
118.875
No observation available
KLFT 
23nm E 
211753Z VRB06KT 10SM BKN024 30/22 A3012 RMK AO2 SLP198 T03000217 10311 20222 58008
TAF
KLFT 
23nm E 
211737Z 2118/2218 08008KT P6SM VCSH BKN025 BKN050 FM212200 12010KT P6SM VCSH BKN025 BKN050 FM220200 07003KT P6SM SCT250 FM221400 13007KT P6SM FEW025
NOTAMs
Click for the latest NOTAMs
NOTAMs are issued by the DoD/FAA and will open in a separate window not controlled by AirNav.

 

 
 

Would you like to see your business listed on this page?

 If your business provides an interesting product or service to pilots, flight crews, aircraft, or users of the Lejeune Airport, you should consider listing it here.  To start the listing process, click on the button below
 
Add a business
 

Other Pages about Lejeune Airport

Update a link
 
Copyright © AirNav, LLC. All rights reserved. Privacy Policy  Contact